createdAt,value
2022-08-17T00:00:49.437Z,4.40
2022-08-17T00:01:52.124Z,4.30
2022-08-17T00:02:42.871Z,4.70
2022-08-17T00:03:34.818Z,4.60
2022-08-17T00:04:34.815Z,4.70
2022-08-17T00:05:34.781Z,4.60
2022-08-17T00:06:34.770Z,4.70
2022-08-17T00:07:34.781Z,4.90
2022-08-17T00:08:34.747Z,4.70
2022-08-17T00:09:35.342Z,4.40
2022-08-17T00:10:34.735Z,4.70
2022-08-17T00:11:34.728Z,4.40
2022-08-17T00:12:43.284Z,4.60
2022-08-17T00:13:34.732Z,4.80
2022-08-17T00:14:34.709Z,4.90
2022-08-17T00:15:34.679Z,5.10
2022-08-17T00:16:50.379Z,4.60
2022-08-17T00:17:34.670Z,5.00
2022-08-17T00:19:06.395Z,4.50
2022-08-17T00:19:34.651Z,4.80
2022-08-17T00:20:35.047Z,4.60
2022-08-17T00:21:57.934Z,4.70
2022-08-17T00:22:37.995Z,4.40
2022-08-17T00:23:34.626Z,4.70
2022-08-17T00:24:34.581Z,4.80
2022-08-17T00:25:34.572Z,4.80
2022-08-17T00:26:44.716Z,4.60
2022-08-17T00:27:34.560Z,4.60
2022-08-17T00:28:34.572Z,4.90
2022-08-17T00:29:34.541Z,5.00
2022-08-17T00:30:51.316Z,4.50
2022-08-17T00:31:34.516Z,4.70
2022-08-17T00:33:16.083Z,4.70
2022-08-17T00:33:34.525Z,4.50
2022-08-17T00:34:34.475Z,4.80
2022-08-17T00:35:34.470Z,4.50
2022-08-17T00:36:34.470Z,4.50
2022-08-17T00:37:35.436Z,4.90
2022-08-17T00:38:34.452Z,4.60
2022-08-17T00:39:34.500Z,4.50
2022-08-17T00:40:40.671Z,4.60
2022-08-17T00:41:34.418Z,4.50
2022-08-17T00:42:34.396Z,4.80
2022-08-17T00:43:34.408Z,4.70
2022-08-17T00:44:34.369Z,5.00
2022-08-17T00:45:34.385Z,4.40
2022-08-17T00:46:34.360Z,4.60
2022-08-17T00:47:34.353Z,4.60
2022-08-17T00:48:34.362Z,4.90
2022-08-17T00:49:34.325Z,4.70
2022-08-17T00:50:34.354Z,4.60
2022-08-17T00:51:34.311Z,4.30
2022-08-17T00:52:34.298Z,4.90
2022-08-17T00:53:34.302Z,4.60
2022-08-17T00:54:42.096Z,4.70
2022-08-17T00:55:34.285Z,5.00
2022-08-17T00:56:34.248Z,4.60
2022-08-17T00:57:34.239Z,5.00
2022-08-17T00:58:36.136Z,4.80
2022-08-17T00:59:34.227Z,4.60
2022-08-17T01:00:34.215Z,5.00
2022-08-17T01:01:34.236Z,4.30
2022-08-17T01:02:40.375Z,4.10
2022-08-17T01:03:34.217Z,4.80
2022-08-17T01:04:34.161Z,4.90
2022-08-17T01:05:34.179Z,4.60
2022-08-17T01:06:34.157Z,4.60
2022-08-17T01:07:34.132Z,4.70
2022-08-17T01:08:34.153Z,4.80
2022-08-17T01:09:34.130Z,5.00
2022-08-17T01:10:58.345Z,4.80
2022-08-17T01:11:34.101Z,5.10
2022-08-17T01:12:34.076Z,4.70
2022-08-17T01:13:40.169Z,4.70
2022-08-17T01:14:34.063Z,4.60
2022-08-17T01:15:34.060Z,4.90
2022-08-17T01:16:34.048Z,5.00
2022-08-17T01:17:34.031Z,4.70
2022-08-17T01:18:34.074Z,5.00
2022-08-17T01:19:34.027Z,5.10
2022-08-17T01:20:41.847Z,4.60
2022-08-17T01:21:33.994Z,5.00
2022-08-17T01:22:33.983Z,5.00
2022-08-17T01:23:33.989Z,4.90
2022-08-17T01:24:33.952Z,4.50
2022-08-17T01:25:33.944Z,5.00
2022-08-17T01:26:33.934Z,4.80
2022-08-17T01:27:33.935Z,5.00
2022-08-17T01:28:53.865Z,4.80
2022-08-17T01:29:33.908Z,4.70
2022-08-17T01:30:56.802Z,5.30
2022-08-17T01:31:34.871Z,5.00
2022-08-17T01:32:33.871Z,4.80
2022-08-17T01:33:33.898Z,4.90
2022-08-17T01:34:42.542Z,4.70
2022-08-17T01:35:33.847Z,5.00
2022-08-17T01:36:33.845Z,4.80
2022-08-17T01:37:33.847Z,5.20
2022-08-17T01:38:33.853Z,4.90
2022-08-17T01:39:33.876Z,5.10
2022-08-17T01:40:33.797Z,5.10
2022-08-17T01:41:33.789Z,4.80
2022-08-17T01:42:33.783Z,5.00
2022-08-17T01:43:33.759Z,5.10
2022-08-17T01:44:33.774Z,5.10
2022-08-17T01:45:33.770Z,5.10
2022-08-17T01:46:33.723Z,5.00
2022-08-17T01:47:36.067Z,5.00
2022-08-17T01:48:33.703Z,5.10
2022-08-17T01:49:33.731Z,5.00
2022-08-17T01:50:33.694Z,5.30
2022-08-17T01:51:33.698Z,4.90
2022-08-17T01:52:33.666Z,5.10
2022-08-17T01:53:33.655Z,5.00
2022-08-17T01:54:33.658Z,4.90
2022-08-17T01:55:33.651Z,4.90
2022-08-17T01:56:33.630Z,5.00
2022-08-17T01:57:33.632Z,4.90
2022-08-17T01:58:33.616Z,5.10
2022-08-17T01:59:33.623Z,4.70
2022-08-17T02:00:59.858Z,5.10
2022-08-17T02:01:33.656Z,5.10
2022-08-17T02:02:33.577Z,5.00
2022-08-17T02:03:33.555Z,5.10
2022-08-17T02:04:33.576Z,4.80
2022-08-17T02:05:33.550Z,5.40
2022-08-17T02:06:44.980Z,5.50
2022-08-17T02:07:33.515Z,4.90
2022-08-17T02:08:37.044Z,4.80
2022-08-17T02:09:33.536Z,5.00
2022-08-17T02:10:33.981Z,5.20
2022-08-17T02:11:33.489Z,4.80
2022-08-17T02:12:37.900Z,5.20
2022-08-17T02:13:33.453Z,5.30
2022-08-17T02:14:33.456Z,5.40
2022-08-17T02:15:33.425Z,5.80
2022-08-17T02:16:37.854Z,5.80
2022-08-17T02:17:33.401Z,5.80
2022-08-17T02:18:33.397Z,5.60
2022-08-17T02:19:33.421Z,5.20
2022-08-17T02:20:42.189Z,5.50
2022-08-17T02:21:33.368Z,5.20
2022-08-17T02:22:33.362Z,5.70
2022-08-17T02:23:33.346Z,5.60
2022-08-17T02:24:58.865Z,5.20
2022-08-17T02:25:33.346Z,5.40
2022-08-17T02:26:33.320Z,5.40
2022-08-17T02:27:33.307Z,5.90
2022-08-17T02:28:33.301Z,5.60
2022-08-17T02:29:33.295Z,5.30
2022-08-17T02:31:01.639Z,5.00
2022-08-17T02:31:33.266Z,5.50
2022-08-17T02:32:33.269Z,5.30
2022-08-17T02:33:43.266Z,5.40
2022-08-17T02:34:33.255Z,4.80
2022-08-17T02:35:33.224Z,5.50
2022-08-17T02:36:33.224Z,5.30
2022-08-17T02:37:33.191Z,5.20
2022-08-17T02:38:33.208Z,4.90
2022-08-17T02:39:33.242Z,5.20
2022-08-17T02:40:36.135Z,5.30
2022-08-17T02:41:33.167Z,5.40
2022-08-17T02:42:33.164Z,5.50
2022-08-17T02:43:33.140Z,5.00
2022-08-17T02:44:39.180Z,5.30
2022-08-17T02:45:33.116Z,5.50
2022-08-17T02:46:33.104Z,5.20
2022-08-17T02:47:33.103Z,5.20
2022-08-17T02:48:33.087Z,5.10
2022-08-17T02:49:33.110Z,5.40
2022-08-17T02:50:33.085Z,5.10
2022-08-17T02:51:33.046Z,5.20
2022-08-17T02:52:42.676Z,4.60
2022-08-17T02:53:35.963Z,5.20
2022-08-17T02:54:39.692Z,5.00
2022-08-17T02:55:33.010Z,4.90
2022-08-17T02:56:33.015Z,4.90
2022-08-17T02:57:32.995Z,5.20
2022-08-17T02:58:35.522Z,5.50
2022-08-17T02:59:32.982Z,5.30
2022-08-17T03:00:32.974Z,5.10
2022-08-17T03:01:33.048Z,4.90
2022-08-17T03:02:32.935Z,5.00
2022-08-17T03:03:32.934Z,4.90
2022-08-17T03:04:35.309Z,5.00
2022-08-17T03:05:32.918Z,4.90
2022-08-17T03:06:32.894Z,4.90
2022-08-17T03:07:32.889Z,5.20
2022-08-17T03:08:32.881Z,5.00
2022-08-17T03:09:32.888Z,5.10
2022-08-17T03:10:32.861Z,5.00
2022-08-17T03:11:32.845Z,4.80
2022-08-17T03:12:32.831Z,5.20
2022-08-17T03:13:32.813Z,5.50
2022-08-17T03:14:32.843Z,5.00
2022-08-17T03:15:32.810Z,5.00
2022-08-17T03:16:32.788Z,5.10
2022-08-17T03:17:32.770Z,4.90
2022-08-17T03:18:32.781Z,5.10
2022-08-17T03:19:32.791Z,5.00
2022-08-17T03:20:32.765Z,5.00
2022-08-17T03:21:32.740Z,5.00
2022-08-17T03:22:47.939Z,4.80
2022-08-17T03:23:32.729Z,4.80
2022-08-17T03:24:32.734Z,5.10
2022-08-17T03:25:32.704Z,5.00
2022-08-17T03:26:32.704Z,5.40
2022-08-17T03:27:32.691Z,5.10
2022-08-17T03:28:32.678Z,5.30
2022-08-17T03:29:32.690Z,5.30
2022-08-17T03:30:32.647Z,5.30
2022-08-17T03:31:32.664Z,4.80
2022-08-17T03:32:32.636Z,5.10
2022-08-17T03:33:32.626Z,5.20
2022-08-17T03:34:32.624Z,5.10
2022-08-17T03:35:32.587Z,5.10
2022-08-17T03:36:32.600Z,5.30
2022-08-17T03:37:32.581Z,5.40
2022-08-17T03:38:39.379Z,5.30
2022-08-17T03:39:32.694Z,5.30
2022-08-17T03:40:55.058Z,5.50
2022-08-17T03:41:32.529Z,5.60
2022-08-17T03:42:32.949Z,5.60
2022-08-17T03:43:32.523Z,5.20
2022-08-17T03:44:32.519Z,5.50
2022-08-17T03:45:32.497Z,5.40
2022-08-17T03:46:35.074Z,6.00
2022-08-17T03:47:32.474Z,5.20
2022-08-17T03:48:32.473Z,5.30
2022-08-17T03:49:32.466Z,5.40
2022-08-17T03:50:32.436Z,5.30
2022-08-17T03:51:33.482Z,5.60
2022-08-17T03:52:32.414Z,5.20
2022-08-17T03:53:32.412Z,5.70
2022-08-17T03:54:32.413Z,5.50
2022-08-17T03:55:36.029Z,5.30
2022-08-17T03:56:32.396Z,5.60
2022-08-17T03:57:32.365Z,5.60
2022-08-17T03:58:32.395Z,6.00
2022-08-17T03:59:32.340Z,5.50
2022-08-17T04:00:32.334Z,5.50
2022-08-17T04:01:32.353Z,5.60
2022-08-17T04:02:32.331Z,5.70
2022-08-17T04:03:32.317Z,5.70
2022-08-17T04:04:32.297Z,5.50
2022-08-17T04:05:32.275Z,5.70
2022-08-17T04:06:32.271Z,5.30
2022-08-17T04:07:32.275Z,5.90
2022-08-17T04:08:32.299Z,5.10
2022-08-17T04:09:32.241Z,5.50
2022-08-17T04:10:33.249Z,6.10
2022-08-17T04:11:32.232Z,5.70
2022-08-17T04:12:32.210Z,5.70
2022-08-17T04:13:32.238Z,5.80
2022-08-17T04:14:32.201Z,5.90
2022-08-17T04:15:32.186Z,5.50
2022-08-17T04:16:32.165Z,5.70
2022-08-17T04:17:32.169Z,5.70
2022-08-17T04:18:32.180Z,5.80
2022-08-17T04:19:32.146Z,5.90
2022-08-17T04:20:32.134Z,6.00
2022-08-17T04:21:32.125Z,5.40
2022-08-17T04:22:34.403Z,5.50
2022-08-17T04:23:32.131Z,5.30
2022-08-17T04:24:32.082Z,5.50
2022-08-17T04:25:32.069Z,5.20
2022-08-17T04:26:53.331Z,5.50
2022-08-17T04:27:32.051Z,5.80
2022-08-17T04:28:32.060Z,5.60
2022-08-17T04:29:50.091Z,5.30
2022-08-17T04:30:32.043Z,5.60
2022-08-17T04:31:32.010Z,5.50
2022-08-17T04:33:02.211Z,5.50
2022-08-17T04:33:31.996Z,5.30
2022-08-17T04:34:32.013Z,5.20
2022-08-17T04:35:31.971Z,5.50
2022-08-17T04:36:31.984Z,5.80
2022-08-17T04:37:31.946Z,6.10
2022-08-17T04:38:31.998Z,6.00
2022-08-17T04:39:33.845Z,6.20
2022-08-17T04:40:31.916Z,7.00
2022-08-17T04:41:31.898Z,6.10
2022-08-17T04:42:31.891Z,6.10
2022-08-17T04:43:31.898Z,6.80
2022-08-17T04:44:37.607Z,6.50
2022-08-17T04:45:32.246Z,6.30
2022-08-17T04:46:31.867Z,6.60
2022-08-17T04:47:31.836Z,6.40
2022-08-17T04:48:36.234Z,7.00
2022-08-17T04:49:31.831Z,6.30
2022-08-17T04:50:31.826Z,6.70
2022-08-17T04:51:31.795Z,7.40
2022-08-17T04:52:43.311Z,7.40
2022-08-17T04:53:31.815Z,7.40
2022-08-17T04:54:31.765Z,7.50
2022-08-17T04:55:31.752Z,9.80
2022-08-17T04:56:31.755Z,8.90
2022-08-17T04:57:39.463Z,9.60
2022-08-17T04:58:31.773Z,9.80
2022-08-17T04:59:31.727Z,10.10
2022-08-17T05:00:31.707Z,11.60
2022-08-17T05:01:31.801Z,11.70
2022-08-17T05:02:31.687Z,11.20
2022-08-17T05:03:31.709Z,12.50
2022-08-17T05:04:34.299Z,12.70
2022-08-17T05:05:31.660Z,12.60
2022-08-17T05:06:31.662Z,11.80
2022-08-17T05:07:31.812Z,12.20
2022-08-17T05:08:31.641Z,13.10
2022-08-17T05:09:31.629Z,12.20
2022-08-17T05:10:31.610Z,12.60
2022-08-17T05:11:31.597Z,14.40
2022-08-17T05:12:31.578Z,15.70
2022-08-17T05:13:31.595Z,17.00
2022-08-17T05:14:33.595Z,17.50
2022-08-17T05:15:33.115Z,19.80
2022-08-17T05:16:31.558Z,18.30
2022-08-17T05:17:31.554Z,20.10
2022-08-17T05:18:31.550Z,19.90
2022-08-17T05:19:31.504Z,21.20
2022-08-17T05:20:31.516Z,19.00
2022-08-17T05:21:31.556Z,20.90
2022-08-17T05:22:31.484Z,21.70
2022-08-17T05:23:35.559Z,19.60
2022-08-17T05:24:42.543Z,19.40
2022-08-17T05:25:34.444Z,20.70
2022-08-17T05:26:31.447Z,18.40
2022-08-17T05:27:35.203Z,20.10
2022-08-17T05:28:31.427Z,19.00
2022-08-17T05:29:35.329Z,17.00
2022-08-17T05:30:31.393Z,17.70
2022-08-17T05:31:31.420Z,19.90
2022-08-17T05:32:38.322Z,16.50
2022-08-17T05:33:31.403Z,19.00
2022-08-17T05:34:31.370Z,20.00
2022-08-17T05:35:31.380Z,20.00
2022-08-17T05:36:42.154Z,14.20
2022-08-17T05:37:31.339Z,17.10
2022-08-17T05:38:31.336Z,19.20
2022-08-17T05:39:31.397Z,19.00
2022-08-17T05:40:32.929Z,17.20
2022-08-17T05:41:31.281Z,16.80
2022-08-17T05:42:31.283Z,17.80
2022-08-17T05:43:31.532Z,21.10
2022-08-17T05:44:31.248Z,18.10
2022-08-17T05:45:54.455Z,19.40
2022-08-17T05:46:31.248Z,17.50
2022-08-17T05:47:31.211Z,17.80
2022-08-17T05:48:39.663Z,17.70
2022-08-17T05:49:31.225Z,18.90
2022-08-17T05:50:31.428Z,18.80
2022-08-17T05:51:31.172Z,18.00
2022-08-17T05:52:31.179Z,16.80
2022-08-17T05:53:31.385Z,16.30
2022-08-17T05:54:31.154Z,18.20
2022-08-17T05:55:31.140Z,19.60
2022-08-17T05:56:31.137Z,18.90
2022-08-17T05:57:31.107Z,18.70
2022-08-17T05:58:31.124Z,18.20
2022-08-17T05:59:31.125Z,18.60
2022-08-17T06:00:31.343Z,20.70
2022-08-17T06:01:31.119Z,14.80
2022-08-17T06:02:31.129Z,15.70
2022-08-17T06:03:31.245Z,15.80
2022-08-17T06:04:31.052Z,16.30
2022-08-17T06:05:31.022Z,18.10
2022-08-17T06:06:31.593Z,18.80
2022-08-17T06:07:31.000Z,21.00
2022-08-17T06:08:31.039Z,17.10
2022-08-17T06:09:33.819Z,16.30
2022-08-17T06:10:30.988Z,16.10
2022-08-17T06:11:30.979Z,16.60
2022-08-17T06:12:30.950Z,14.90
2022-08-17T06:13:30.937Z,15.40
2022-08-17T06:14:30.967Z,17.00
2022-08-17T06:15:31.139Z,16.80
2022-08-17T06:16:34.136Z,19.40
2022-08-17T06:17:31.492Z,16.20
2022-08-17T06:18:30.893Z,16.80
2022-08-17T06:19:32.058Z,15.20
2022-08-17T06:20:30.877Z,17.20
2022-08-17T06:21:32.314Z,17.90
2022-08-17T06:22:31.126Z,16.70
2022-08-17T06:23:30.845Z,17.40
2022-08-17T06:24:30.861Z,15.20
2022-08-17T06:25:30.997Z,15.10
2022-08-17T06:26:39.673Z,15.20
2022-08-17T06:27:30.793Z,16.30
2022-08-17T06:28:30.792Z,15.60
2022-08-17T06:29:30.808Z,15.00
2022-08-17T06:30:58.659Z,14.30
2022-08-17T06:31:30.765Z,13.90
2022-08-17T06:32:30.753Z,14.70
2022-08-17T06:33:30.728Z,14.00
2022-08-17T06:34:30.748Z,14.50
2022-08-17T06:35:31.972Z,13.60
2022-08-17T06:36:30.709Z,13.50
2022-08-17T06:37:30.683Z,13.50
2022-08-17T06:38:37.702Z,14.90
2022-08-17T06:39:30.814Z,14.20
2022-08-17T06:40:30.684Z,13.30
2022-08-17T06:41:30.648Z,13.40
2022-08-17T06:42:54.791Z,13.70
2022-08-17T06:43:30.649Z,14.40
2022-08-17T06:44:43.336Z,13.90
2022-08-17T06:45:31.583Z,11.10
2022-08-17T06:46:30.603Z,9.90
2022-08-17T06:47:30.596Z,11.10
2022-08-17T06:48:30.582Z,11.90
2022-08-17T06:49:30.606Z,14.10
2022-08-17T06:50:30.571Z,12.80
2022-08-17T06:51:30.545Z,14.90
2022-08-17T06:52:47.297Z,14.10
2022-08-17T06:53:30.547Z,16.00
2022-08-17T06:54:30.533Z,15.50
2022-08-17T06:55:34.536Z,17.30
2022-08-17T06:56:53.918Z,15.40
2022-08-17T06:57:30.770Z,16.00
2022-08-17T06:58:30.467Z,16.90
2022-08-17T06:59:47.162Z,19.00
2022-08-17T07:00:30.548Z,17.50
2022-08-17T07:01:30.513Z,16.70
2022-08-17T07:03:02.378Z,15.90
2022-08-17T07:03:30.427Z,17.60
2022-08-17T07:04:30.436Z,18.00
2022-08-17T07:05:30.491Z,17.40
2022-08-17T07:06:30.394Z,17.60
2022-08-17T07:07:30.661Z,19.40
2022-08-17T07:08:33.952Z,20.40
2022-08-17T07:09:30.390Z,19.30
2022-08-17T07:10:30.351Z,20.70
2022-08-17T07:11:30.345Z,20.90
2022-08-17T07:12:30.319Z,20.30
2022-08-17T07:13:30.318Z,20.60
2022-08-17T07:14:30.364Z,17.20
2022-08-17T07:15:30.316Z,15.50
2022-08-17T07:16:30.297Z,21.00
2022-08-17T07:17:47.699Z,20.40
2022-08-17T07:18:30.294Z,15.00
2022-08-17T07:19:30.289Z,16.40
2022-08-17T07:20:30.239Z,14.40
2022-08-17T07:21:30.239Z,11.00
2022-08-17T07:22:30.228Z,11.80
2022-08-17T07:23:30.234Z,11.50
2022-08-17T07:24:30.743Z,15.10
2022-08-17T07:25:30.208Z,13.60
2022-08-17T07:26:30.348Z,14.60
2022-08-17T07:27:30.184Z,15.30
2022-08-17T07:28:30.172Z,15.10
2022-08-17T07:29:30.170Z,12.80
2022-08-17T07:30:30.144Z,16.10
2022-08-17T07:31:30.128Z,18.40
2022-08-17T07:32:30.126Z,14.80
2022-08-17T07:33:30.150Z,13.50
2022-08-17T07:34:30.089Z,15.30
2022-08-17T07:35:37.559Z,16.70
2022-08-17T07:36:30.345Z,17.00
2022-08-17T07:37:30.255Z,18.50
2022-08-17T07:38:30.069Z,18.10
2022-08-17T07:39:30.104Z,17.10
2022-08-17T07:40:30.098Z,18.50
2022-08-17T07:41:53.224Z,17.10
2022-08-17T07:42:30.012Z,17.40
2022-08-17T07:43:31.202Z,14.90
2022-08-17T07:44:30.006Z,13.20
2022-08-17T07:45:29.994Z,13.10
2022-08-17T07:46:30.038Z,13.80
2022-08-17T07:47:29.984Z,16.30
2022-08-17T07:48:30.076Z,15.60
2022-08-17T07:49:29.942Z,17.20
2022-08-17T07:50:29.936Z,15.20
2022-08-17T07:51:29.937Z,14.60
2022-08-17T07:52:48.472Z,13.90
2022-08-17T07:53:29.941Z,12.80
2022-08-17T07:54:29.887Z,15.70
2022-08-17T07:55:29.883Z,12.10
2022-08-17T07:56:34.650Z,13.30
2022-08-17T07:57:30.214Z,13.20
2022-08-17T07:58:29.869Z,10.70
2022-08-17T07:59:33.742Z,12.00
2022-08-17T08:00:32.170Z,13.90
2022-08-17T08:01:41.877Z,8.50
2022-08-17T08:02:33.584Z,9.00
2022-08-17T08:03:29.891Z,9.10
2022-08-17T08:05:49.133Z,7.90
2022-08-17T08:06:29.765Z,9.90
2022-08-17T08:07:29.761Z,10.80
2022-08-17T08:08:29.753Z,10.80
2022-08-17T08:09:29.772Z,13.30
2022-08-17T08:10:29.716Z,13.20
2022-08-17T08:11:29.734Z,15.30
2022-08-17T08:12:33.437Z,15.00
2022-08-17T08:13:29.709Z,15.80
2022-08-17T08:14:29.686Z,18.00
2022-08-17T08:15:29.675Z,15.10
2022-08-17T08:16:29.799Z,16.40
2022-08-17T08:17:29.643Z,15.70
2022-08-17T08:18:53.438Z,16.00
2022-08-17T08:19:29.649Z,14.80
2022-08-17T08:20:52.168Z,15.60
2022-08-17T08:21:29.614Z,16.30
2022-08-17T08:22:29.607Z,16.50
2022-08-17T08:23:29.604Z,17.30
2022-08-17T08:24:30.866Z,18.60
2022-08-17T08:25:29.563Z,19.10
2022-08-17T08:26:29.577Z,16.10
2022-08-17T08:27:29.557Z,16.90
2022-08-17T08:28:29.556Z,18.40
2022-08-17T08:29:29.590Z,16.60
2022-08-17T08:30:29.547Z,19.60
2022-08-17T08:31:29.502Z,16.90
2022-08-17T08:32:29.499Z,19.90
2022-08-17T08:33:29.499Z,20.20
2022-08-17T08:35:00.911Z,17.60
2022-08-17T08:35:29.500Z,19.80
2022-08-17T08:37:14.955Z,16.90
2022-08-17T08:37:35.547Z,20.10
2022-08-17T08:38:29.448Z,22.90
2022-08-17T08:39:29.474Z,18.80
2022-08-17T08:40:29.439Z,16.80
2022-08-17T08:41:29.481Z,14.70
2022-08-17T08:42:29.380Z,16.20
2022-08-17T08:43:29.578Z,15.50
2022-08-17T08:45:00.296Z,15.80
2022-08-17T08:45:29.361Z,15.30
2022-08-17T08:46:29.360Z,16.30
2022-08-17T08:47:29.331Z,13.50
2022-08-17T08:48:55.956Z,15.50
2022-08-17T08:49:59.140Z,16.80
2022-08-17T08:50:37.049Z,17.50
2022-08-17T08:51:29.294Z,17.20
2022-08-17T08:52:29.275Z,17.70
2022-08-17T08:53:29.312Z,16.20
2022-08-17T08:54:29.266Z,19.60
2022-08-17T08:55:29.274Z,17.40
2022-08-17T08:56:29.251Z,19.30
2022-08-17T08:57:33.733Z,19.10
2022-08-17T08:58:31.604Z,17.50
2022-08-17T08:59:29.247Z,15.40
2022-08-17T09:00:29.190Z,16.90
2022-08-17T09:01:29.197Z,16.70
2022-08-17T09:02:29.184Z,19.20
2022-08-17T09:03:51.893Z,19.70
2022-08-17T09:04:29.175Z,17.70
2022-08-17T09:05:29.142Z,15.00
2022-08-17T09:06:37.736Z,18.40
2022-08-17T09:07:29.197Z,14.50
2022-08-17T09:08:29.136Z,13.70
2022-08-17T09:09:29.102Z,15.20
2022-08-17T09:10:29.098Z,15.40
2022-08-17T09:11:29.091Z,15.80
2022-08-17T09:12:29.094Z,16.50
2022-08-17T09:13:29.088Z,18.80
2022-08-17T09:14:29.051Z,15.00
2022-08-17T09:15:29.049Z,13.90
2022-08-17T09:16:29.051Z,16.40
2022-08-17T09:17:29.027Z,13.40
2022-08-17T09:19:02.770Z,11.80
2022-08-17T09:19:29.019Z,12.20
2022-08-17T09:20:29.016Z,11.90
2022-08-17T09:21:29.059Z,12.20
2022-08-17T09:22:29.015Z,11.40
2022-08-17T09:23:29.029Z,11.40
2022-08-17T09:24:28.968Z,11.20
2022-08-17T09:25:29.005Z,11.20
2022-08-17T09:26:28.975Z,10.70
2022-08-17T09:27:28.935Z,11.10
2022-08-17T09:28:28.943Z,11.30
2022-08-17T09:29:28.910Z,12.70
2022-08-17T09:30:28.877Z,10.90
2022-08-17T09:31:33.258Z,12.90
2022-08-17T09:32:28.856Z,10.30
2022-08-17T09:33:28.935Z,12.70
2022-08-17T09:34:33.216Z,12.40
2022-08-17T09:35:36.475Z,9.50
2022-08-17T09:36:28.820Z,10.00
2022-08-17T09:37:28.828Z,11.00
2022-08-17T09:38:32.284Z,11.50
2022-08-17T09:39:28.852Z,13.30
2022-08-17T09:40:28.784Z,10.90
2022-08-17T09:41:28.781Z,11.70
2022-08-17T09:42:28.770Z,11.70
2022-08-17T09:43:28.775Z,11.10
2022-08-17T09:44:28.731Z,11.20
2022-08-17T09:45:28.750Z,11.90
2022-08-17T09:46:28.728Z,12.20
2022-08-17T09:47:28.737Z,12.70
2022-08-17T09:48:28.731Z,11.70
2022-08-17T09:49:28.696Z,12.10
2022-08-17T09:50:57.373Z,13.80
2022-08-17T09:51:28.669Z,11.60
2022-08-17T09:52:28.669Z,11.30
2022-08-17T09:53:31.774Z,10.20
2022-08-17T09:54:39.070Z,11.00
2022-08-17T09:55:28.626Z,11.30
2022-08-17T09:56:28.633Z,11.50
2022-08-17T09:57:30.654Z,10.50
2022-08-17T09:58:29.182Z,9.20
2022-08-17T09:59:35.949Z,10.90
2022-08-17T10:00:28.591Z,11.80
2022-08-17T10:01:28.648Z,13.10
2022-08-17T10:02:28.572Z,15.90
2022-08-17T10:03:28.575Z,14.80
2022-08-17T10:04:29.738Z,13.80
2022-08-17T10:05:28.537Z,13.00
2022-08-17T10:06:28.513Z,11.60
2022-08-17T10:07:28.513Z,10.00
2022-08-17T10:08:28.488Z,10.40
2022-08-17T10:09:28.498Z,7.90
2022-08-17T10:10:28.480Z,8.60
2022-08-17T10:11:33.738Z,8.80
2022-08-17T10:12:30.073Z,9.90
2022-08-17T10:13:28.442Z,10.10
2022-08-17T10:14:37.836Z,10.30
2022-08-17T10:15:28.435Z,10.10
2022-08-17T10:16:28.406Z,10.20
2022-08-17T10:17:28.391Z,8.70
2022-08-17T10:18:31.954Z,8.10
2022-08-17T10:19:28.382Z,9.20
2022-08-17T10:20:28.382Z,7.70
2022-08-17T10:21:28.361Z,7.80
2022-08-17T10:22:35.010Z,7.30
2022-08-17T10:23:28.598Z,7.70
2022-08-17T10:24:28.334Z,7.10
2022-08-17T10:25:42.882Z,8.00
2022-08-17T10:26:28.301Z,7.90
2022-08-17T10:27:28.302Z,8.60
2022-08-17T10:28:30.095Z,8.50
2022-08-17T10:29:29.000Z,9.70
2022-08-17T10:30:28.258Z,9.40
2022-08-17T10:31:34.605Z,8.50
2022-08-17T10:32:28.247Z,9.00
2022-08-17T10:33:28.255Z,8.00
2022-08-17T10:34:28.226Z,9.10
2022-08-17T10:35:28.258Z,7.70
2022-08-17T10:36:28.208Z,7.00
2022-08-17T10:37:28.182Z,6.60
2022-08-17T10:38:28.198Z,6.90
2022-08-17T10:39:28.223Z,6.30
2022-08-17T10:40:28.198Z,7.60
2022-08-17T10:41:28.144Z,6.20
2022-08-17T10:42:30.906Z,5.80
2022-08-17T10:43:28.153Z,6.10
2022-08-17T10:44:38.694Z,6.00
2022-08-17T10:45:28.106Z,7.20
2022-08-17T10:46:31.145Z,7.40
2022-08-17T10:47:28.094Z,7.70
2022-08-17T10:48:28.085Z,8.70
2022-08-17T10:49:28.085Z,9.90
2022-08-17T10:50:28.051Z,8.80
2022-08-17T10:51:28.037Z,8.00
2022-08-17T10:52:28.030Z,8.00
2022-08-17T10:53:28.075Z,8.10
2022-08-17T10:54:27.999Z,7.20
2022-08-17T10:55:27.992Z,6.80
2022-08-17T10:56:27.980Z,6.90
2022-08-17T10:57:27.979Z,6.50
2022-08-17T10:58:27.992Z,7.10
2022-08-17T10:59:27.948Z,6.90
2022-08-17T11:00:27.971Z,6.20
2022-08-17T11:01:27.985Z,6.60
2022-08-17T11:02:27.950Z,6.50
2022-08-17T11:03:27.928Z,7.70
2022-08-17T11:04:27.899Z,8.10
2022-08-17T11:05:27.891Z,8.40
2022-08-17T11:06:27.896Z,7.80
2022-08-17T11:07:27.887Z,8.80
2022-08-17T11:08:27.891Z,6.90
2022-08-17T11:09:27.850Z,6.00
2022-08-17T11:10:27.839Z,5.70
2022-08-17T11:11:27.840Z,5.60
2022-08-17T11:12:27.815Z,5.90
2022-08-17T11:13:27.830Z,5.20
2022-08-17T11:14:27.796Z,5.40
2022-08-17T11:15:27.800Z,5.00
2022-08-17T11:16:27.773Z,5.50
2022-08-17T11:17:27.761Z,5.50
2022-08-17T11:18:27.773Z,5.10
2022-08-17T11:19:27.754Z,5.20
2022-08-17T11:20:27.735Z,5.20
2022-08-17T11:21:27.723Z,5.20
2022-08-17T11:22:31.363Z,5.40
2022-08-17T11:23:27.720Z,4.60
2022-08-17T11:24:27.713Z,4.90
2022-08-17T11:25:27.688Z,4.80
2022-08-17T11:26:27.671Z,5.10
2022-08-17T11:27:27.660Z,4.90
2022-08-17T11:28:27.684Z,5.40
2022-08-17T11:29:27.641Z,5.10
2022-08-17T11:30:27.648Z,5.30
2022-08-17T11:31:38.456Z,5.00
2022-08-17T11:32:27.631Z,5.30
2022-08-17T11:33:27.632Z,5.20
2022-08-17T11:34:27.602Z,5.30
2022-08-17T11:35:27.570Z,5.30
2022-08-17T11:36:27.580Z,5.30
2022-08-17T11:37:27.552Z,5.20
2022-08-17T11:38:28.549Z,4.90
2022-08-17T11:39:27.629Z,4.90
2022-08-17T11:40:27.523Z,5.30
2022-08-17T11:41:27.561Z,4.80
2022-08-17T11:42:27.772Z,4.90
2022-08-17T11:43:27.519Z,4.80
2022-08-17T11:44:27.478Z,4.90
2022-08-17T11:45:31.714Z,4.30
2022-08-17T11:46:27.489Z,4.60
2022-08-17T11:47:27.646Z,4.60
2022-08-17T11:48:28.889Z,4.70
2022-08-17T11:49:27.444Z,4.40
2022-08-17T11:50:28.097Z,4.80
2022-08-17T11:51:27.413Z,4.50
2022-08-17T11:52:28.267Z,4.50
2022-08-17T11:53:27.419Z,4.70
2022-08-17T11:54:34.935Z,4.80
2022-08-17T11:55:38.232Z,4.30
2022-08-17T11:56:27.361Z,4.70
2022-08-17T11:57:27.388Z,4.60
2022-08-17T11:58:27.418Z,4.40
2022-08-17T11:59:27.356Z,4.50
2022-08-17T12:00:27.325Z,4.50
2022-08-17T12:01:27.308Z,4.80
2022-08-17T12:02:27.301Z,4.30
2022-08-17T12:03:27.385Z,4.40
2022-08-17T12:04:27.398Z,4.30
2022-08-17T12:05:27.369Z,4.40
2022-08-17T12:06:30.789Z,4.50
2022-08-17T12:07:27.278Z,4.30
2022-08-17T12:08:27.307Z,4.90
2022-08-17T12:09:27.240Z,4.20
2022-08-17T12:10:27.216Z,4.50
2022-08-17T12:12:11.090Z,4.30
2022-08-17T12:12:27.195Z,4.30
2022-08-17T12:13:33.984Z,4.10
2022-08-17T12:14:45.348Z,3.90
2022-08-17T12:15:27.206Z,4.20
2022-08-17T12:16:27.155Z,4.20
2022-08-17T12:17:41.206Z,4.10
2022-08-17T12:18:27.173Z,3.90
2022-08-17T12:19:27.125Z,4.00
2022-08-17T12:20:27.121Z,4.10
2022-08-17T12:21:27.114Z,3.60
2022-08-17T12:22:27.109Z,3.50
2022-08-17T12:23:27.093Z,3.50
2022-08-17T12:24:27.084Z,3.60
2022-08-17T12:25:27.079Z,3.40
2022-08-17T12:26:27.073Z,3.30
2022-08-17T12:28:04.197Z,3.50
2022-08-17T12:28:27.077Z,3.40
2022-08-17T12:29:35.566Z,3.60
2022-08-17T12:30:27.015Z,3.20
2022-08-17T12:31:27.017Z,3.80
2022-08-17T12:32:27.031Z,3.60
2022-08-17T12:33:28.463Z,3.60
2022-08-17T12:34:26.968Z,3.40
2022-08-17T12:35:26.981Z,3.40
2022-08-17T12:36:26.946Z,3.50
2022-08-17T12:37:26.977Z,2.80
2022-08-17T12:38:33.199Z,2.80
2022-08-17T12:39:26.949Z,3.20
2022-08-17T12:40:26.923Z,3.10
2022-08-17T12:41:26.961Z,3.30
2022-08-17T12:42:26.905Z,3.30
2022-08-17T12:43:26.888Z,3.30
2022-08-17T12:44:26.864Z,3.30
2022-08-17T12:45:26.850Z,3.10
2022-08-17T12:46:26.855Z,3.00
2022-08-17T12:47:29.497Z,2.80
2022-08-17T12:48:26.836Z,3.00
2022-08-17T12:49:26.807Z,3.10
2022-08-17T12:50:28.485Z,3.00
2022-08-17T12:51:26.803Z,3.30
2022-08-17T12:52:26.812Z,3.10
2022-08-17T12:53:26.780Z,3.10
2022-08-17T12:54:26.806Z,3.10
2022-08-17T12:55:27.669Z,3.20
2022-08-17T12:56:26.786Z,3.10
2022-08-17T12:57:26.761Z,3.10
2022-08-17T12:58:26.758Z,2.90
2022-08-17T12:59:29.695Z,3.10
2022-08-17T13:00:26.733Z,3.10
2022-08-17T13:01:26.805Z,3.20
2022-08-17T13:02:26.732Z,2.90
2022-08-17T13:03:26.685Z,3.10
2022-08-17T13:04:26.712Z,2.70
2022-08-17T13:05:26.688Z,3.00
2022-08-17T13:06:26.644Z,3.00
2022-08-17T13:07:26.675Z,3.10
2022-08-17T13:08:26.635Z,2.80
2022-08-17T13:09:35.715Z,3.20